Time;durP1;ratioP1;P1;durP2;ratioP2;P2;SDS_P1;SDS_P2;PMS_P1;PMS_P2;Temp;Humidity;BMP_temperature;BMP_pressure;BME280_temperature;BME280_humidity;BME280_pressure;Samples;Min_cycle;Max_cycle;Signal;HPM_P1;HPM_P2
2024/01/12 00:01:14;;;;;;;45.17;41.07;;;2.30;16.70;;;;;;5033500;28;20271;-77
2024/01/12 00:03:40;;;;;;;40.73;37.23;;;2.20;16.60;;;;;;5033378;28;20172;-79
2024/01/12 00:06:06;;;;;;;44.47;40.70;;;1.90;17.00;;;;;;5034721;28;20427;-79
2024/01/12 00:08:32;;;;;;;45.30;41.50;;;2.10;17.20;;;;;;5034663;28;20179;-79
2024/01/12 00:10:58;;;;;;;43.00;39.10;;;2.30;16.50;;;;;;5051079;28;20442;-78
2024/01/12 00:13:23;;;;;;;46.50;42.70;;;2.30;17.40;;;;;;5033658;28;20516;-77
2024/01/12 00:15:49;;;;;;;47.40;43.07;;;2.30;17.40;;;;;;5052031;28;20180;-79
2024/01/12 00:18:15;;;;;;;44.20;40.10;;;2.40;16.70;;;;;;5052520;28;20199;-77
2024/01/12 00:20:43;;;;;;;47.33;42.77;;;2.30;17.00;;;;;;5034071;28;20446;-79
2024/01/12 00:23:10;;;;;;;44.47;40.47;;;2.30;16.80;;;;;;5032843;28;20206;-79
2024/01/12 00:25:35;;;;;;;43.27;39.67;;;2.30;16.60;;;;;;5033410;28;20461;-80
2024/01/12 00:28:01;;;;;;;47.90;43.60;;;2.30;16.80;;;;;;5032981;28;20419;-78
2024/01/12 00:30:26;;;;;;;44.60;40.77;;;2.30;16.80;;;;;;5034228;28;20211;-79
2024/01/12 00:32:52;;;;;;;46.40;42.17;;;2.20;17.20;;;;;;5050283;28;20234;-78
2024/01/12 00:35:17;;;;;;;44.77;40.97;;;2.40;17.20;;;;;;5033919;28;20198;-81
2024/01/12 00:37:43;;;;;;;46.17;42.27;;;2.60;16.70;;;;;;5050705;28;20207;-79
2024/01/12 00:40:09;;;;;;;44.20;40.37;;;2.80;16.20;;;;;;5051315;28;20224;-77
2024/01/12 00:42:35;;;;;;;42.60;39.00;;;2.70;16.10;;;;;;5033183;28;20180;-78
2024/01/12 00:45:00;;;;;;;42.87;39.20;;;2.40;17.00;;;;;;5051544;28;20454;-78
2024/01/12 00:47:26;;;;;;;41.30;37.67;;;2.40;18.20;;;;;;5050397;28;20195;-77
2024/01/12 00:49:51;;;;;;;43.33;39.53;;;2.40;17.40;;;;;;5054001;28;20207;-80
2024/01/12 00:52:17;;;;;;;44.27;40.27;;;2.40;17.60;;;;;;5052217;28;20228;-78
2024/01/12 00:54:43;;;;;;;42.50;38.70;;;2.70;16.90;;;;;;5053988;28;20218;-80
2024/01/12 00:57:08;;;;;;;43.77;39.87;;;2.90;16.00;;;;;;5040578;28;20556;-78
2024/01/12 00:59:34;;;;;;;43.20;39.43;;;3.10;15.80;;;;;;5036740;28;20242;-80
2024/01/12 01:01:59;;;;;;;42.47;39.03;;;3.20;15.30;;;;;;5035043;28;20532;-79
2024/01/12 01:04:26;;;;;;;43.67;39.47;;;3.30;15.10;;;;;;5052467;28;20172;-80
2024/01/12 01:06:52;;;;;;;43.07;39.37;;;3.40;14.90;;;;;;5050706;28;20243;-80
2024/01/12 01:09:18;;;;;;;45.40;41.37;;;3.50;14.60;;;;;;5050065;28;20673;-78
2024/01/12 01:11:44;;;;;;;43.07;39.23;;;3.50;14.60;;;;;;5050024;28;20422;-81
2024/01/12 01:14:09;;;;;;;43.90;39.90;;;3.50;14.40;;;;;;5032787;28;20966;-78
2024/01/12 01:16:35;;;;;;;42.90;39.30;;;3.50;14.40;;;;;;5033414;28;20330;-79
2024/01/12 01:19:01;;;;;;;43.67;39.80;;;3.50;14.30;;;;;;5030563;28;20299;-78
2024/01/12 01:21:26;;;;;;;41.57;37.87;;;3.50;14.50;;;;;;5030717;28;20748;-79
2024/01/12 01:23:54;;;;;;;42.47;38.63;;;3.50;14.40;;;;;;5027866;28;20423;-77
2024/01/12 01:26:19;;;;;;;43.10;39.43;;;3.40;14.60;;;;;;5030313;28;20416;-78
2024/01/12 01:28:45;;;;;;;44.10;40.40;;;3.40;14.60;;;;;;5029446;28;20476;-77
2024/01/12 01:31:10;;;;;;;42.87;39.30;;;3.50;14.50;;;;;;5046722;28;20775;-78
2024/01/12 01:33:36;;;;;;;43.00;39.20;;;3.50;14.20;;;;;;5028742;28;20234;-78
2024/01/12 01:36:02;;;;;;;45.50;41.20;;;3.40;14.30;;;;;;5048113;28;20666;-79
2024/01/12 01:38:28;;;;;;;40.10;36.43;;;3.40;14.30;;;;;;5047330;28;20191;-79
2024/01/12 01:40:53;;;;;;;42.53;38.67;;;3.40;14.00;;;;;;5050480;28;20778;-77
2024/01/12 01:43:19;;;;;;;42.97;39.17;;;3.30;13.90;;;;;;5030631;28;20498;-79
2024/01/12 01:45:44;;;;;;;41.60;38.20;;;3.30;13.90;;;;;;5030701;28;20191;-78
2024/01/12 01:48:10;;;;;;;42.07;38.37;;;2.80;15.60;;;;;;5048911;28;20184;-77
2024/01/12 01:50:36;;;;;;;42.60;38.67;;;2.30;16.40;;;;;;5040025;28;20199;-79
2024/01/12 01:53:04;;;;;;;45.60;41.53;;;2.30;16.80;;;;;;5057353;28;20449;-77
2024/01/12 01:55:30;;;;;;;40.33;36.93;;;2.40;16.40;;;;;;5038941;28;20433;-81
2024/01/12 01:57:57;;;;;;;43.93;40.17;;;2.60;15.90;;;;;;5039179;28;20558;-82
2024/01/12 02:00:23;;;;;;;46.67;42.20;;;2.80;15.40;;;;;;5040446;28;20441;-80
2024/01/12 02:02:49;;;;;;;43.17;39.40;;;2.90;15.10;;;;;;5043351;28;20410;-80
2024/01/12 02:05:14;;;;;;;42.00;38.20;;;3.10;14.90;;;;;;5043133;28;20406;-77
2024/01/12 02:07:41;;;;;;;42.33;38.73;;;3.10;14.60;;;;;;5057084;28;20204;-80
2024/01/12 02:10:07;;;;;;;40.50;37.07;;;3.20;14.80;;;;;;5055546;28;20226;-79
2024/01/12 02:12:37;;;;;;;42.73;39.13;;;3.20;14.80;;;;;;5037091;28;20449;-80
2024/01/12 02:15:07;;;;;;;41.00;37.57;;;3.10;14.90;;;;;;5039616;28;20422;-81
2024/01/12 02:17:33;;;;;;;43.07;39.37;;;2.70;15.40;;;;;;5037789;28;20428;-81
2024/01/12 02:19:59;;;;;;;41.57;37.90;;;2.40;16.70;;;;;;5036178;28;20470;-78
2024/01/12 02:22:26;;;;;;;43.10;39.30;;;2.50;16.60;;;;;;5037131;28;20449;-79
2024/01/12 02:24:51;;;;;;;41.50;37.90;;;2.70;16.20;;;;;;5054541;28;20414;-80
2024/01/12 02:27:17;;;;;;;40.87;37.23;;;2.90;15.70;;;;;;5037222;28;20413;-79
2024/01/12 02:29:44;;;;;;;44.10;40.13;;;3.00;15.50;;;;;;5038951;28;20224;-79
2024/01/12 02:32:10;;;;;;;41.70;38.20;;;3.10;15.20;;;;;;5036248;28;20172;-80
2024/01/12 02:34:35;;;;;;;43.07;39.47;;;3.20;14.80;;;;;;5053879;28;20929;-81
2024/01/12 02:37:00;;;;;;;42.23;38.40;;;3.20;14.70;;;;;;5036593;28;20553;-81
2024/01/12 02:39:26;;;;;;;43.07;39.27;;;3.30;14.60;;;;;;5053543;28;20262;-80
2024/01/12 02:41:52;;;;;;;46.07;41.67;;;3.40;14.50;;;;;;5056755;28;20184;-80
2024/01/12 02:44:17;;;;;;;43.73;39.80;;;3.40;14.40;;;;;;5053711;28;20182;-78
2024/01/12 02:46:43;;;;;;;41.47;37.87;;;3.40;14.50;;;;;;5074681;28;20224;-79
2024/01/12 02:49:08;;;;;;;44.93;40.93;;;3.30;15.00;;;;;;5057316;28;20199;-78
2024/01/12 02:51:34;;;;;;;41.93;38.43;;;3.20;15.20;;;;;;5067682;28;20164;-77
2024/01/12 02:54:00;;;;;;;42.53;38.80;;;3.20;15.00;;;;;;5041973;28;20644;-81
2024/01/12 02:56:25;;;;;;;43.57;39.60;;;3.20;14.80;;;;;;5043088;28;20483;-80
2024/01/12 02:58:51;;;;;;;41.47;37.80;;;3.30;14.70;;;;;;5061884;28;20223;-83
2024/01/12 03:01:20;;;;;;;43.30;39.43;;;3.30;14.50;;;;;;5060987;28;21036;-82
2024/01/12 03:03:45;;;;;;;42.00;38.30;;;3.40;14.40;;;;;;5060705;28;20199;-82
2024/01/12 03:06:11;;;;;;;42.27;38.67;;;3.40;14.20;;;;;;5043592;28;20422;-82
2024/01/12 03:08:36;;;;;;;40.83;37.33;;;3.40;14.10;;;;;;5042415;28;20192;-82
2024/01/12 03:11:02;;;;;;;41.17;37.60;;;3.40;14.10;;;;;;5064790;28;20180;-80
2024/01/12 03:13:28;;;;;;;43.43;39.73;;;3.30;14.10;;;;;;5042817;28;20219;-81
2024/01/12 03:15:53;;;;;;;39.60;36.20;;;3.30;14.10;;;;;;5046826;28;20187;-80
2024/01/12 03:18:19;;;;;;;39.93;36.63;;;2.90;13.80;;;;;;5065793;28;20664;-82
2024/01/12 03:20:45;;;;;;;41.43;37.90;;;2.50;14.80;;;;;;5043504;28;20179;-82
2024/01/12 03:23:10;;;;;;;43.23;39.30;;;2.10;15.70;;;;;;5041959;28;20956;-82
2024/01/12 03:25:36;;;;;;;43.87;39.77;;;1.80;16.60;;;;;;5044075;28;20263;-80
2024/01/12 03:28:01;;;;;;;40.10;36.63;;;1.90;16.80;;;;;;5044556;28;20199;-82
2024/01/12 03:30:27;;;;;;;42.80;38.97;;;2.10;16.30;;;;;;5042272;28;20219;-82
2024/01/12 03:32:52;;;;;;;43.20;39.40;;;2.20;15.80;;;;;;5059965;28;20187;-82
2024/01/12 03:35:18;;;;;;;44.13;40.20;;;2.10;16.50;;;;;;5060580;28;20183;-80
2024/01/12 03:37:43;;;;;;;42.97;39.30;;;2.00;15.90;;;;;;5041741;28;20244;-82
2024/01/12 03:40:10;;;;;;;44.87;40.80;;;1.80;16.50;;;;;;5060057;28;20215;-82
2024/01/12 03:42:35;;;;;;;46.33;42.00;;;1.60;16.60;;;;;;5040767;28;20182;-80
2024/01/12 03:45:01;;;;;;;44.57;40.67;;;1.60;17.20;;;;;;5059980;28;20403;-81
2024/01/12 03:47:26;;;;;;;46.67;42.47;;;1.50;16.90;;;;;;5042536;28;20254;-81
2024/01/12 03:49:52;;;;;;;46.53;42.53;;;1.60;17.20;;;;;;5042181;28;20207;-82
2024/01/12 03:52:17;;;;;;;47.03;42.80;;;1.70;16.80;;;;;;5040038;28;20262;-81
2024/01/12 03:54:43;;;;;;;49.37;45.00;;;1.60;17.30;;;;;;5060036;28;20172;-79
2024/01/12 03:57:08;;;;;;;50.80;46.43;;;1.60;17.90;;;;;;5059942;28;20222;-79
2024/01/12 03:59:34;;;;;;;52.40;47.90;;;1.50;18.00;;;;;;5040519;28;20216;-77
2024/01/12 04:01:59;;;;;;;54.03;49.13;;;1.50;18.50;;;;;;5040626;28;20211;-79
2024/01/12 04:04:25;;;;;;;55.37;50.50;;;1.50;18.60;;;;;;5066884;28;20534;-79
2024/01/12 04:06:50;;;;;;;56.37;51.07;;;1.70;18.20;;;;;;5042924;28;20187;-81
2024/01/12 04:09:16;;;;;;;54.07;48.67;;;1.70;18.10;;;;;;5042400;28;20252;-81
2024/01/12 04:11:42;;;;;;;52.80;48.20;;;1.70;17.80;;;;;;5059911;28;20175;-81
2024/01/12 04:14:07;;;;;;;54.13;49.33;;;1.60;18.60;;;;;;5041479;28;20183;-81
2024/01/12 04:16:33;;;;;;;52.90;48.00;;;1.70;18.80;;;;;;5045171;28;20406;-78
2024/01/12 04:18:59;;;;;;;56.00;50.90;;;1.70;18.40;;;;;;5064201;28;20699;-82
2024/01/12 04:21:24;;;;;;;55.87;51.27;;;1.50;18.40;;;;;;5046002;28;20176;-82
2024/01/12 04:23:50;;;;;;;58.27;53.23;;;1.30;18.50;;;;;;5062821;28;20565;-82
2024/01/12 04:26:15;;;;;;;54.33;49.47;;;1.30;19.40;;;;;;5064853;28;20184;-81
2024/01/12 04:28:41;;;;;;;57.90;52.70;;;1.30;19.60;;;;;;5047925;28;20216;-82
2024/01/12 04:31:06;;;;;;;59.83;54.40;;;1.50;18.60;;;;;;5071641;28;20187;-78
2024/01/12 04:33:33;;;;;;;54.53;49.80;;;1.60;18.60;;;;;;5071955;28;20180;-79
2024/01/12 04:36:00;;;;;;;49.50;44.77;;;1.40;18.50;;;;;;5064623;28;20351;-83
2024/01/12 04:38:26;;;;;;;52.90;48.40;;;1.40;19.20;;;;;;5061887;28;20466;-79
2024/01/12 04:40:53;;;;;;;59.70;54.00;;;1.60;18.70;;;;;;5062866;28;20445;-80
2024/01/12 04:43:18;;;;;;;55.70;50.90;;;1.50;18.60;;;;;;5041745;28;20492;-77
2024/01/12 04:45:44;;;;;;;58.20;53.10;;;1.80;18.50;;;;;;5041615;28;20411;-82
2024/01/12 04:48:09;;;;;;;56.33;51.27;;;2.00;17.40;;;;;;5042872;28;20187;-78
2024/01/12 04:50:35;;;;;;;57.40;51.97;;;2.30;17.10;;;;;;5060833;28;20314;-80
2024/01/12 04:53:01;;;;;;;59.00;53.93;;;2.20;16.60;;;;;;5042148;28;20180;-80
2024/01/12 04:55:29;;;;;;;59.27;53.77;;;1.90;17.50;;;;;;5060433;28;20220;-86
2024/01/12 04:57:55;;;;;;;58.23;52.90;;;2.10;17.30;;;;;;5042056;28;20203;-81
2024/01/12 05:00:21;;;;;;;58.13;52.90;;;2.30;16.60;;;;;;5059433;28;20680;-82
2024/01/12 05:02:46;;;;;;;58.97;53.60;;;2.60;18.30;;;;;;5059127;28;20203;-81
2024/01/12 05:05:12;;;;;;;58.67;53.20;;;2.70;16.30;;;;;;5060038;28;20172;-81
2024/01/12 05:07:38;;;;;;;58.37;53.13;;;2.80;15.40;;;;;;5041323;28;20830;-83
2024/01/12 05:10:04;;;;;;;60.43;55.03;;;2.80;15.20;;;;;;5041111;28;20218;-81
2024/01/12 05:12:30;;;;;;;59.93;54.53;;;2.90;14.80;;;;;;5057354;28;20411;-78
2024/01/12 05:14:55;;;;;;;60.13;54.90;;;3.00;14.60;;;;;;5040602;28;20417;-81
2024/01/12 05:17:22;;;;;;;57.47;52.53;;;3.00;14.50;;;;;;5041643;28;20176;-82
2024/01/12 05:19:48;;;;;;;61.60;56.07;;;3.00;14.50;;;;;;5041493;28;20207;-81
2024/01/12 05:22:14;;;;;;;59.90;54.43;;;2.90;14.60;;;;;;5039599;28;20791;-79
2024/01/12 05:24:39;;;;;;;60.80;55.60;;;2.90;14.70;;;;;;5059122;28;20199;-82
2024/01/12 05:27:05;;;;;;;59.60;54.40;;;2.90;14.50;;;;;;5041987;28;20407;-81
2024/01/12 05:29:30;;;;;;;59.17;54.07;;;2.80;14.70;;;;;;5040538;28;20585;-81
2024/01/12 05:31:56;;;;;;;60.07;54.77;;;2.80;14.70;;;;;;5040942;28;20187;-82
2024/01/12 05:34:21;;;;;;;52.17;47.20;;;2.70;15.10;;;;;;5042095;28;20187;-83
2024/01/12 05:36:47;;;;;;;55.30;50.47;;;2.70;14.80;;;;;;5059650;28;20243;-80
2024/01/12 05:39:14;;;;;;;58.97;53.60;;;2.70;14.80;;;;;;5060008;28;20212;-82
2024/01/12 05:41:40;;;;;;;68.50;62.30;;;2.50;14.80;;;;;;5040704;28;20202;-81
2024/01/12 05:44:05;;;;;;;62.30;56.60;;;1.90;16.40;;;;;;5040685;28;20505;-82
2024/01/12 05:46:31;;;;;;;60.77;54.97;;;1.60;17.30;;;;;;5059276;28;20246;-80
2024/01/12 05:48:57;;;;;;;60.03;54.63;;;1.50;17.50;;;;;;5058889;28;21325;-82
2024/01/12 05:51:23;;;;;;;55.90;50.73;;;1.10;18.40;;;;;;5042282;28;20182;-81
2024/01/12 05:53:49;;;;;;;51.70;47.20;;;0.40;19.50;;;;;;5040912;28;20478;-82
2024/01/12 05:56:14;;;;;;;54.97;50.27;;;-0.10;20.30;;;;;;5060354;28;20191;-82
2024/01/12 05:58:40;;;;;;;52.63;48.07;;;-0.20;21.30;;;;;;5041453;28;20668;-82
2024/01/12 06:01:06;;;;;;;51.75;47.42;;;-0.30;21.60;;;;;;5059543;28;20164;-82
2024/01/12 06:03:31;;;;;;;52.80;47.87;;;-0.40;22.10;;;;;;5040539;28;20183;-81
2024/01/12 06:05:57;;;;;;;52.50;47.80;;;-0.10;21.70;;;;;;5041660;28;20190;-82
2024/01/12 06:08:23;;;;;;;53.37;48.90;;;-0.10;21.40;;;;;;5038728;28;20213;-84
2024/01/12 06:10:50;;;;;;;52.72;48.13;;;0.10;21.20;;;;;;5065192;28;20421;-83
2024/01/12 06:13:16;;;;;;;54.37;49.47;;;0.40;20.80;;;;;;5037795;28;20245;-80
2024/01/12 06:15:42;;;;;;;55.90;51.15;;;0.70;19.90;;;;;;5037704;28;20496;-80
2024/01/12 06:18:07;;;;;;;55.23;50.43;;;0.70;19.90;;;;;;5037997;28;20636;-80
2024/01/12 06:20:33;;;;;;;54.23;49.20;;;0.80;19.60;;;;;;5044013;28;20214;-82
2024/01/12 06:22:59;;;;;;;51.73;47.40;;;1.00;19.40;;;;;;5052849;28;20179;-75
2024/01/12 06:25:24;;;;;;;52.03;47.37;;;1.30;19.40;;;;;;5070498;28;20195;-81
2024/01/12 06:27:50;;;;;;;53.37;48.77;;;1.60;18.60;;;;;;5072084;28;20240;-78
2024/01/12 06:30:16;;;;;;;54.53;49.60;;;1.80;17.90;;;;;;5072445;28;20206;-78
2024/01/12 06:32:42;;;;;;;55.00;50.13;;;2.00;17.50;;;;;;5054240;28;20237;-80
2024/01/12 06:35:10;;;;;;;56.30;51.10;;;2.20;17.00;;;;;;5058179;28;20508;-79
2024/01/12 06:37:35;;;;;;;56.13;51.20;;;2.30;16.40;;;;;;5054113;28;20422;-77
2024/01/12 06:40:01;;;;;;;56.30;51.00;;;2.40;16.30;;;;;;5060002;28;20488;-77
2024/01/12 06:42:28;;;;;;;57.77;52.80;;;2.40;16.20;;;;;;5041303;28;20212;-78
2024/01/12 06:44:54;;;;;;;56.13;50.67;;;2.50;15.90;;;;;;5052820;28;20431;-76
2024/01/12 06:47:19;;;;;;;54.93;50.13;;;2.60;15.60;;;;;;5071304;28;20414;-77
2024/01/12 06:49:45;;;;;;;56.00;50.93;;;2.70;15.40;;;;;;5072127;28;20451;-76
2024/01/12 06:52:11;;;;;;;53.93;49.13;;;2.60;15.50;;;;;;5054077;28;20716;-77
2024/01/12 06:54:37;;;;;;;55.47;50.77;;;2.20;16.50;;;;;;5036486;28;20667;-77
2024/01/12 06:57:02;;;;;;;55.90;51.20;;;2.20;16.40;;;;;;5057519;28;20418;-79
2024/01/12 06:59:28;;;;;;;52.40;47.73;;;2.30;16.30;;;;;;5059338;28;20215;-78
2024/01/12 07:01:53;;;;;;;52.47;47.93;;;2.10;15.90;;;;;;5071860;28;20183;-78
2024/01/12 07:04:19;;;;;;;53.03;47.50;;;1.40;17.50;;;;;;5045208;28;20176;-78
2024/01/12 07:06:45;;;;;;;51.30;46.80;;;1.20;18.40;;;;;;5054289;28;20540;-78
2024/01/12 07:09:14;;;;;;;52.80;48.20;;;1.30;18.50;;;;;;5037394;28;20200;-78
2024/01/12 07:11:43;;;;;;;51.03;46.53;;;1.20;18.40;;;;;;5037124;28;20456;-78
2024/01/12 07:14:09;;;;;;;52.83;48.13;;;1.20;18.40;;;;;;5055578;28;20407;-78
2024/01/12 07:16:35;;;;;;;54.17;49.57;;;1.20;18.40;;;;;;5054634;28;20441;-78
2024/01/12 07:19:01;;;;;;;55.30;50.40;;;1.50;18.60;;;;;;5054229;28;20477;-77
2024/01/12 07:21:26;;;;;;;52.60;48.00;;;1.70;18.60;;;;;;5038114;28;20793;-77
2024/01/12 07:23:52;;;;;;;52.03;47.63;;;1.70;17.40;;;;;;5060210;28;20180;-78
2024/01/12 07:26:17;;;;;;;53.57;49.03;;;1.70;18.00;;;;;;5037838;28;20176;-79
2024/01/12 07:28:43;;;;;;;53.73;49.00;;;2.00;17.50;;;;;;5053648;28;20222;-77
2024/01/12 07:31:08;;;;;;;53.60;48.60;;;2.30;16.80;;;;;;5053918;28;20259;-75
2024/01/12 07:33:34;;;;;;;54.37;49.57;;;2.40;16.30;;;;;;5052922;28;20222;-78
2024/01/12 07:35:59;;;;;;;52.40;47.70;;;2.50;16.10;;;;;;5053855;28;20256;-78
2024/01/12 07:38:25;;;;;;;51.47;47.03;;;2.60;15.70;;;;;;5053628;28;20250;-78
2024/01/12 07:40:50;;;;;;;55.60;50.83;;;2.70;15.40;;;;;;5056774;28;20202;-78
2024/01/12 07:43:16;;;;;;;55.07;50.27;;;2.70;15.20;;;;;;5055037;28;20178;-77
2024/01/12 07:45:41;;;;;;;53.13;48.37;;;2.80;15.10;;;;;;5037635;28;20274;-77
2024/01/12 07:48:10;;;;;;;54.57;49.60;;;2.80;15.30;;;;;;5067155;28;20186;-78
2024/01/12 07:50:36;;;;;;;52.63;48.03;;;2.80;14.90;;;;;;5037196;28;20245;-78
2024/01/12 07:53:01;;;;;;;51.67;46.97;;;2.80;14.90;;;;;;5052793;28;20438;-77
2024/01/12 07:55:27;;;;;;;50.67;46.37;;;2.70;14.70;;;;;;5053357;28;20507;-76
2024/01/12 07:57:53;;;;;;;49.23;44.90;;;2.60;14.60;;;;;;5034684;28;20179;-77
2024/01/12 08:00:19;;;;;;;47.67;43.43;;;2.60;14.60;;;;;;5052498;28;20191;-77
2024/01/12 08:02:44;;;;;;;51.87;47.23;;;2.70;15.10;;;;;;5051775;28;20838;-77
2024/01/12 08:05:10;;;;;;;50.20;45.90;;;2.70;14.40;;;;;;5052527;28;20176;-76
2024/01/12 08:07:36;;;;;;;49.73;45.53;;;2.70;14.30;;;;;;5034174;28;20674;-78
2024/01/12 08:10:02;;;;;;;50.27;46.00;;;2.70;13.90;;;;;;5040557;28;20204;-78
2024/01/12 08:12:28;;;;;;;47.40;43.40;;;2.70;14.20;;;;;;5047566;28;20421;-78
2024/01/12 08:14:53;;;;;;;49.93;45.43;;;2.30;14.50;;;;;;5053213;28;20442;-78
2024/01/12 08:17:19;;;;;;;46.30;42.23;;;2.10;15.10;;;;;;5053662;28;20199;-78
2024/01/12 08:19:44;;;;;;;50.53;45.83;;;1.80;15.20;;;;;;5034283;28;20692;-77
2024/01/12 08:22:10;;;;;;;53.00;48.50;;;1.70;16.30;;;;;;5052347;28;20176;-78
2024/01/12 08:24:36;;;;;;;53.93;49.00;;;1.80;16.20;;;;;;5035612;28;20182;-76
2024/01/12 08:27:02;;;;;;;55.50;50.70;;;1.60;16.40;;;;;;5054466;28;20247;-78
2024/01/12 08:29:30;;;;;;;55.60;50.40;;;1.40;17.00;;;;;;5054689;28;20453;-79
2024/01/12 08:31:56;;;;;;;54.57;50.03;;;1.30;17.60;;;;;;5057482;28;21186;-79
2024/01/12 08:34:22;;;;;;;58.53;53.03;;;1.50;17.30;;;;;;5058388;28;20416;-78
2024/01/12 08:36:47;;;;;;;57.23;51.93;;;1.70;17.30;;;;;;5057233;28;20172;-78
2024/01/12 08:39:14;;;;;;;55.23;50.63;;;1.70;16.90;;;;;;5073966;28;21062;-80
2024/01/12 08:41:40;;;;;;;58.23;53.03;;;1.90;16.50;;;;;;5068993;28;20195;-76
2024/01/12 08:44:06;;;;;;;59.50;54.10;;;2.10;15.60;;;;;;5068778;28;20421;-77
2024/01/12 08:46:32;;;;;;;58.93;53.83;;;2.10;15.40;;;;;;5072668;28;20191;-81
2024/01/12 08:48:58;;;;;;;61.30;55.33;;;2.30;15.10;;;;;;5057574;28;20946;-80
2024/01/12 08:51:24;;;;;;;61.03;55.63;;;2.30;14.80;;;;;;5055802;28;20639;-81
2024/01/12 08:53:49;;;;;;;63.43;57.43;;;2.40;14.50;;;;;;5054759;28;20505;-81
2024/01/12 08:56:15;;;;;;;60.27;54.70;;;2.20;14.90;;;;;;5074283;28;20167;-80
2024/01/12 08:58:40;;;;;;;157.13;141.07;;;1.90;15.20;;;;;;5056627;28;20682;-80
2024/01/12 09:01:06;;;;;;;63.87;57.97;;;1.50;16.60;;;;;;5056628;28;20261;-78
2024/01/12 09:03:32;;;;;;;63.77;57.80;;;1.40;17.80;;;;;;5034621;28;20187;-78
2024/01/12 09:05:57;;;;;;;62.33;56.93;;;1.60;19.10;;;;;;5048729;28;20632;-79
2024/01/12 09:08:23;;;;;;;58.80;53.50;;;1.90;18.80;;;;;;5061768;28;20178;-78
2024/01/12 09:10:48;;;;;;;63.23;57.17;;;2.10;18.70;;;;;;5036250;28;20176;-79
2024/01/12 09:13:14;;;;;;;60.57;55.27;;;2.00;16.20;;;;;;5039710;28;20175;-79
2024/01/12 09:15:39;;;;;;;58.73;53.47;;;1.80;16.90;;;;;;5036083;28;20191;-79
2024/01/12 09:18:06;;;;;;;62.80;57.17;;;1.70;16.90;;;;;;5070953;28;20632;-80
2024/01/12 09:20:32;;;;;;;64.23;58.57;;;1.70;17.10;;;;;;5073086;28;20191;-79
2024/01/12 09:22:58;;;;;;;65.00;58.20;;;1.40;17.10;;;;;;5070665;28;20500;-80
2024/01/12 09:25:23;;;;;;;61.13;55.70;;;1.40;17.10;;;;;;5046193;28;20263;-79
2024/01/12 09:27:50;;;;;;;63.83;58.40;;;1.40;17.10;;;;;;5033696;28;20487;-79
2024/01/12 09:30:16;;;;;;;62.93;57.30;;;1.40;17.30;;;;;;5033422;28;20215;-80
2024/01/12 09:32:41;;;;;;;50.03;45.43;;;1.40;17.40;;;;;;5054869;28;20472;-79
2024/01/12 09:35:07;;;;;;;61.97;56.47;;;1.50;17.10;;;;;;5076797;28;20601;-79
2024/01/12 09:37:32;;;;;;;61.13;55.63;;;1.70;18.30;;;;;;5071265;28;20177;-79
2024/01/12 09:39:58;;;;;;;60.33;54.90;;;2.00;18.90;;;;;;5059279;28;20203;-78
2024/01/12 09:42:26;;;;;;;59.23;53.83;;;2.30;19.80;;;;;;5039953;28;20175;-80
2024/01/12 09:44:52;;;;;;;61.60;56.10;;;2.50;17.00;;;;;;5074137;28;20175;-79
2024/01/12 09:47:17;;;;;;;58.07;52.60;;;2.60;15.70;;;;;;5054918;28;20895;-79
2024/01/12 09:49:43;;;;;;;59.13;54.00;;;2.50;15.00;;;;;;5072469;28;20484;-79
2024/01/12 09:52:09;;;;;;;59.77;54.47;;;2.60;15.30;;;;;;5072794;28;20305;-79
2024/01/12 09:54:35;;;;;;;60.00;54.60;;;2.70;14.60;;;;;;5043260;28;20592;-78
2024/01/12 09:57:06;;;;;;;58.27;53.10;;;2.60;15.00;;;;;;5055501;28;20417;-78
2024/01/12 09:59:32;;;;;;;58.37;53.40;;;2.50;15.40;;;;;;5053150;28;20699;-78
2024/01/12 10:01:58;;;;;;;58.00;53.00;;;2.40;15.40;;;;;;5070211;28;20402;-80
2024/01/12 10:04:24;;;;;;;58.57;53.43;;;2.20;16.50;;;;;;5048800;28;20419;-78
2024/01/12 10:06:49;;;;;;;57.60;52.43;;;1.90;16.90;;;;;;5051548;28;20506;-78
2024/01/12 10:09:16;;;;;;;59.30;53.93;;;2.10;16.70;;;;;;5050417;28;20253;-77
2024/01/12 10:11:42;;;;;;;59.40;53.90;;;2.30;16.10;;;;;;5031916;28;20184;-79
2024/01/12 10:14:08;;;;;;;59.40;54.10;;;2.50;15.80;;;;;;5050511;28;20417;-77
2024/01/12 10:16:33;;;;;;;59.83;54.40;;;2.50;15.70;;;;;;5050464;28;20666;-79
2024/01/12 10:18:59;;;;;;;60.60;54.80;;;2.50;16.20;;;;;;5050354;28;20299;-77
2024/01/12 10:21:25;;;;;;;57.30;52.00;;;2.40;17.10;;;;;;5050487;28;20251;-77
2024/01/12 10:24:01;;;;;;;59.97;54.57;;;2.40;18.10;;;;;;5049208;28;20458;-79
2024/01/12 10:26:26;;;;;;;59.73;54.63;;;2.40;19.80;;;;;;5038932;28;20468;-78
2024/01/12 10:28:52;;;;;;;58.27;52.97;;;2.40;17.20;;;;;;5039848;28;20466;-79
2024/01/12 10:31:19;;;;;;;59.20;53.77;;;2.50;17.10;;;;;;5076165;28;20175;-80
2024/01/12 10:33:46;;;;;;;56.70;51.73;;;2.60;16.50;;;;;;5066394;28;20180;-80
2024/01/12 10:36:18;;;;;;;57.60;52.43;;;2.80;16.10;;;;;;5064820;28;20418;-81
2024/01/12 10:38:45;;;;;;;58.60;53.33;;;2.80;15.40;;;;;;5054186;28;21004;-77
2024/01/12 10:41:11;;;;;;;58.83;53.63;;;2.70;16.00;;;;;;5050737;28;20497;-78
2024/01/12 10:43:38;;;;;;;56.33;51.30;;;2.50;16.60;;;;;;5063762;28;20406;-77
2024/01/12 10:46:22;;;;;;;60.33;54.63;;;2.60;16.90;;;;;;5064534;28;20473;-78
2024/01/12 10:49:16;;;;;;;60.03;54.63;;;2.50;17.20;;;;;;5047821;28;20427;-78
2024/01/12 10:51:46;;;;;;;60.13;54.80;;;2.50;17.10;;;;;;5028283;28;20933;-78
2024/01/12 10:54:25;;;;;;;55.90;51.13;;;2.70;16.60;;;;;;5049927;28;20418;-78
2024/01/12 10:56:51;;;;;;;56.40;51.60;;;2.90;16.20;;;;;;5049720;28;20609;-77
2024/01/12 10:59:18;;;;;;;54.10;49.27;;;2.90;15.70;;;;;;5049831;28;20462;-77
2024/01/12 11:01:44;;;;;;;55.13;50.40;;;3.00;15.40;;;;;;5048640;28;20402;-80
2024/01/12 11:04:10;;;;;;;49.63;45.00;;;3.00;15.20;;;;;;5050123;28;20409;-82
2024/01/12 11:06:36;;;;;;;52.27;47.70;;;2.70;15.90;;;;;;5050750;28;20481;-80
2024/01/12 11:09:04;;;;;;;56.33;51.57;;;2.80;15.70;;;;;;5032974;28;20869;-77
2024/01/12 11:11:40;;;;;;;55.87;50.97;;;2.90;15.60;;;;;;5052845;28;20494;-80
2024/01/12 11:14:06;;;;;;;55.30;50.50;;;3.00;15.40;;;;;;5054930;28;20415;-80
2024/01/12 11:16:31;;;;;;;54.03;49.20;;;3.20;15.30;;;;;;5036160;28;20422;-78
2024/01/12 11:19:15;;;;;;;52.10;47.40;;;3.30;15.00;;;;;;5042853;28;20454;-79
2024/01/12 11:22:03;;;;;;;53.63;48.63;;;3.40;14.80;;;;;;5059704;28;20179;-83
2024/01/12 11:24:29;;;;;;;55.70;50.83;;;3.40;14.50;;;;;;5039583;28;20413;-80
2024/01/12 11:26:55;;;;;;;52.83;48.33;;;3.40;14.40;;;;;;5054968;28;20407;-81
2024/01/12 11:29:20;;;;;;;53.73;48.90;;;3.50;14.70;;;;;;5036361;28;20465;-80
2024/01/12 11:31:50;;;;;;;48.57;44.70;;;3.50;14.50;;;;;;5051002;28;20207;-80
2024/01/12 11:34:18;;;;;;;49.33;44.83;;;3.50;14.30;;;;;;5040983;28;20603;-80
2024/01/12 11:36:43;;;;;;;50.27;45.97;;;3.50;14.30;;;;;;5060032;28;20779;-80
2024/01/12 11:39:13;;;;;;;51.50;46.87;;;3.40;14.20;;;;;;5035973;28;20465;-80
2024/01/12 11:41:46;;;;;;;50.47;46.30;;;3.40;14.20;;;;;;5035889;28;20176;-81
2024/01/12 11:44:14;;;;;;;50.80;46.33;;;3.40;14.00;;;;;;5019751;28;21056;-79
2024/01/12 11:46:41;;;;;;;53.13;48.53;;;3.40;14.00;;;;;;5051994;28;20577;-79
2024/01/12 11:49:08;;;;;;;52.87;48.07;;;3.40;13.90;;;;;;5050649;28;20453;-81
2024/01/12 11:51:46;;;;;;;54.40;49.80;;;3.50;14.10;;;;;;5036827;28;20426;-80
2024/01/12 11:54:11;;;;;;;56.00;51.37;;;3.50;14.20;;;;;;5021670;28;20438;-81
2024/01/12 11:56:37;;;;;;;53.93;49.30;;;3.50;14.60;;;;;;5057115;28;20417;-79
2024/01/12 11:59:03;;;;;;;52.70;48.10;;;3.50;14.40;;;;;;5054359;28;20605;-81
2024/01/12 12:01:31;;;;;;;52.73;48.13;;;3.50;14.40;;;;;;5041382;28;20258;-81
2024/01/12 12:03:57;;;;;;;52.17;47.60;;;3.60;14.30;;;;;;5047904;28;20372;-80
2024/01/12 12:06:23;;;;;;;55.50;50.60;;;3.50;14.60;;;;;;5055867;28;20452;-78
2024/01/12 12:08:55;;;;;;;55.23;50.57;;;3.50;14.60;;;;;;5056685;28;20438;-79
2024/01/12 12:11:22;;;;;;;55.90;50.97;;;3.50;14.70;;;;;;5065444;28;20421;-77
2024/01/12 12:13:48;;;;;;;51.30;46.70;;;3.50;14.60;;;;;;5048566;28;20813;-79
2024/01/12 12:16:14;;;;;;;53.57;48.60;;;3.50;15.00;;;;;;5035861;28;20918;-78
2024/01/12 12:18:40;;;;;;;54.57;49.90;;;3.30;15.40;;;;;;5036410;28;20481;-80
2024/01/12 12:21:06;;;;;;;54.20;49.30;;;3.20;15.90;;;;;;5036398;28;20418;-80
2024/01/12 12:23:31;;;;;;;51.23;46.90;;;3.30;15.60;;;;;;5034960;28;20176;-77
2024/01/12 12:25:59;;;;;;;55.73;50.73;;;3.40;15.30;;;;;;5054968;28;20413;-79
2024/01/12 12:28:24;;;;;;;51.80;47.50;;;3.30;15.70;;;;;;5054127;28;20542;-79
2024/01/12 12:30:55;;;;;;;52.93;48.30;;;3.40;15.40;;;;;;5035844;28;20418;-79